Latest Coastal Weather Observations for Hindmarsh Island

IDS60701

Issued at 4:11 pm CST Thursday 29 September 2016 (issued every 10 minutes, with the page automatically refreshed every 10 minutes)

About coastal observations | Map of coastal stations | Coastal observations for SA | Marine services | Other Formats
Station Details ID: 023894 Name: HINDMARSH ISLAND AWS Lat: -35.52 Lon: 138.82 Height: 11.0 m
Data from the previous 72 hours. | See also: Recent months at Hindmarsh Island
Date/Time
CST
Temp
°C
Wind Pressure Rain since
9am
mm
Weather Cloud Vis
km
Sea
Height
m
Swell
Dir  Spd
kts
Gust
kts
hPa Trend Height
m
Period
s
Dir
29/03:00pm 14.0 SW 16 22 985.3 - 0.0 - - - - - - -
29/02:30pm 13.9 SW 17 21 984.9 - 0.0 - - - - - - -
29/02:00pm 14.1 SW 18 20 984.7 - 0.0 - - - - - - -
29/01:30pm 14.4 WSW 18 23 984.8 - 0.0 - - - - - - -
29/01:00pm 14.4 SW 20 27 984.6 - 0.0 - - - - - - -
29/12:00pm 13.8 SW 21 29 984.2 - 0.0 - - - - - - -
29/05:36am 8.5 N 16 31 979.6 - 33.2 - - - - - - -
29/05:30am 8.4 N 14 20 979.8 - 33.2 - - - - - - -
29/05:00am 8.6 N 11 16 980.8 - 33.0 - - - - - - -
29/04:46am 8.9 N 15 25 981.0 - 33.0 - - - - - - -
29/04:30am 8.6 N 16 23 980.8 - 33.0 - - - - - - -
29/04:00am 8.1 N 15 21 982.0 - 32.8 - - - - - - -
29/03:30am 8.5 N 13 20 983.3 - 32.8 - - - - - - -
29/03:00am 9.0 N 12 17 983.7 - 32.6 - - - - - - -
29/02:30am 9.0 N 14 20 984.5 - 32.6 - - - - - - -
29/02:00am 9.3 NNW 16 27 985.6 - 32.4 - - - - - - -
29/01:50am 9.7 NNW 15 26 985.9 - 32.4 - - - - - - -
29/01:36am 9.6 - - - 986.3 - - - - - - - - -
29/01:30am 9.6 NNW 16 23 986.3 - 32.4 - - - - - - -
29/01:00am 9.7 NNW 20 34 987.1 - 32.4 - - - - - - -
29/12:43am 9.8 NNW 16 27 987.6 - 32.4 - - - - - - -
29/12:30am 9.9 NW 14 19 988.3 - 32.4 - - - - - - -
29/12:00am 10.4 NW 14 23 988.6 - 32.4 - - - - - - -
 
Date/Time
CST
Temp
°C
Wind Pressure Rain since
9am
mm
Weather Cloud Vis
km
Sea
Height
m
Swell
Dir  Spd
kts
Gust
kts
hPa Trend Height
m
Period
s
Dir
28/11:38pm 10.0 NW 15 25 989.2 - 32.4 - - - - - - -
28/11:30pm 10.7 NNW 10 15 989.8 - 32.2 - - - - - - -
28/11:00pm 11.3 NNW 13 20 989.6 - 32.2 - - - - - - -
28/10:30pm 11.3 NW 14 20 989.5 - 32.2 - - - - - - -
28/10:00pm 11.0 NW 12 15 989.7 - 32.2 - - - - - - -
28/09:30pm 11.1 NW 17 23 989.8 - 32.2 - - - - - - -
28/09:00pm 11.5 WNW 18 26 989.3 - 32.2 - - - - - - -
28/08:41pm 11.2 W 16 26 989.4 - 32.2 - - - - - - -
28/08:30pm 11.2 WNW 14 19 990.0 - 32.2 - - - - - - -
28/08:00pm 11.5 WNW 19 24 990.0 - 31.6 - - - - - - -
28/07:30pm 11.9 WNW 15 22 989.2 - 31.4 - - - - - - -
28/07:00pm 12.1 W 14 21 989.0 - 31.4 - - - - - - -
28/06:30pm 12.3 W 21 29 989.2 - 31.4 - - - - - - -
28/06:23pm 12.5 W 23 33 989.7 - 31.2 - - - - - - -
28/06:20pm 12.6 W 26 33 989.6 - 31.2 - - - - - - -
28/06:14pm 13.6 NW 15 32 989.6 - 31.2 - - - - - - -
28/06:00pm 13.1 NNW 11 15 989.0 - 31.2 - - - - - - -
28/05:30pm 12.3 NNW 4 9 988.9 - 25.4 - - - - - - -
28/05:00pm 12.3 SSW 5 8 989.0 - 22.4 - - - - - - -
28/04:30pm 12.6 N 6 11 990.1 - 16.8 - - - - - - -
28/04:00pm 12.6 NE 14 19 988.9 - 12.2 - - - - - - -
28/03:30pm 12.7 NE 20 27 989.9 - 12.0 - - - - - - -
28/03:00pm 12.0 NE 21 30 991.8 - 12.0 - - - - - - -
28/02:59pm 12.0 NE 22 30 991.5 - 12.0 - - - - - - -
28/02:50pm 11.9 NE 18 27 992.0 - 12.0 - - - - - - -
28/02:30pm 11.5 NE 18 23 993.5 - 12.0 - - - - - - -
28/02:00pm 11.5 NNE 17 23 995.2 - 9.4 - - - - - - -
28/01:30pm 11.3 NE 19 26 995.6 - 7.4 - - - - - - -
28/01:26pm 11.4 NNE 17 24 996.8 - 7.4 - - - - - - -
28/01:23pm 11.3 NNE 18 24 996.5 - 7.4 - - - - - - -
28/01:00pm 11.6 N 18 25 998.6 - 5.0 - - - - - - -
28/12:37pm 13.3 N 22 32 999.2 - 0.8 - - - - - - -
28/12:32pm 13.3 N 22 32 999.2 - 0.8 - - - - - - -
28/12:30pm 13.5 N 22 29 999.3 - 0.6 - - - - - - -
28/12:00pm 16.6 NNE 18 27 998.9 - 0.0 - - - - - - -
28/11:30am 16.8 NNE 23 31 998.4 - 0.0 - - - - - - -
28/11:10am 17.1 NNE 23 33 998.4 - 0.0 - - - - - - -
28/11:05am 17.1 NNE 23 33 998.4 - 0.0 - - - - - - -
28/11:00am 17.2 NNE 23 31 998.5 - 0.0 - - - - - - -
28/10:33am 17.6 NNE 22 33 1000.2 - 0.0 - - - - - - -
28/10:30am 17.6 NNE 23 33 1000.2 - 0.0 - - - - - - -
28/10:16am 16.9 NNE 22 32 1001.0 - 0.0 - - - - - - -
28/10:11am 16.9 NNE 22 32 1001.0 - 0.0 - - - - - - -
28/10:00am 17.6 NNE 23 31 1001.2 - 0.0 - - - - - - -
28/09:56am 17.7 NNE 20 30 1001.7 - 0.0 - - - - - - -
28/09:51am 17.7 NNE 20 30 1001.7 - 0.0 - - - - - - -
28/09:30am 17.1 NNE 23 30 1002.4 - 0.0 - - - - - - -
28/09:00am 15.7 NE 17 24 1003.7 - 0.0 - - - - - - -
28/08:30am 14.0 NE 15 19 1004.8 - 0.0 - - - - - - -
28/08:00am 12.6 NE 13 16 1005.3 - 0.0 - - - - - - -
28/07:30am 11.3 NNE 11 15 1006.3 - 0.0 - - - - - - -
28/07:00am 9.2 NNE 10 12 1006.9 - 0.0 - - - - - - -
28/06:30am 7.8 NNE 10 12 1007.1 - 0.0 - - - - - - -
28/06:00am 6.3 NE 11 13 1007.4 - 0.0 - - - - - - -
28/05:30am 6.5 NNE 10 11 1007.8 - 0.0 - - - - - - -
28/05:00am 7.0 NNE 9 11 1008.1 - 0.0 - - - - - - -
28/04:30am 5.5 NE 7 9 1008.3 - 0.0 - - - - - - -
28/04:00am 5.0 E 5 6 1008.7 - 0.0 - - - - - - -
28/03:30am 6.6 E 5 9 1009.0 - 0.0 - - - - - - -
28/03:00am 8.0 N 7 9 1009.5 - 0.0 - - - - - - -
28/02:30am 7.7 N 7 8 1009.7 - 0.0 - - - - - - -
28/02:00am 7.9 N 5 6 1010.3 - 0.0 - - - - - - -
28/01:30am 8.2 NNE 4 5 1011.0 - 0.0 - - - - - - -
28/01:00am 8.9 N 4 5 1011.2 - 0.0 - - - - - - -
28/12:30am 8.9 N 8 9 1011.5 - 0.0 - - - - - - -
28/12:00am 8.9 N 7 11 1011.8 - 0.0 - - - - - - -
 
Date/Time
CST
Temp
°C
Wind Pressure Rain since
9am
mm
Weather Cloud Vis
km
Sea
Height
m
Swell
Dir  Spd
kts
Gust
kts
hPa Trend Height
m
Period
s
Dir
27/11:30pm 9.1 N 8 9 1012.0 - 0.0 - - - - - - -
27/11:00pm 9.8 N 7 9 1012.3 - 0.0 - - - - - - -
27/10:30pm 10.1 N 9 11 1012.7 - 0.0 - - - - - - -
27/10:00pm 9.9 N 6 8 1012.8 - 0.0 - - - - - - -
27/09:30pm 9.9 N 6 7 1012.9 - 0.0 - - - - - - -
27/09:00pm 10.6 N 6 7 1013.4 - 0.0 - - - - - - -
27/08:30pm 10.7 NNW 6 7 1013.5 - 0.0 - - - - - - -
27/08:00pm 11.4 N 7 8 1013.5 - 0.0 - - - - - - -
27/07:30pm 11.7 NNW 5 7 1013.6 - 0.0 - - - - - - -
27/07:00pm 12.0 NNW 6 6 1013.6 - 0.0 - - - - - - -
27/06:30pm 12.8 NNW 7 9 1013.6 - 0.0 - - - - - - -
27/06:00pm 14.1 NW 9 11 1013.5 - 0.0 - - - - - - -
27/05:30pm 14.5 NW 10 14 1013.3 - 0.0 - - - - - - -
27/05:00pm 14.8 WNW 11 15 1013.3 - 0.0 - - - - - - -
27/04:30pm 15.1 WNW 10 14 1013.5 - 0.0 - - - - - - -
27/04:00pm 15.5 WNW 11 17 1013.4 - 0.0 - - - - - - -
27/03:30pm 15.7 WNW 11 16 1013.4 - 0.0 - - - - - - -
27/03:00pm 15.3 NW 15 20 1013.7 - 0.0 - - - - - - -
27/02:30pm 16.9 NW 14 19 1013.7 - 0.0 - - - - - - -
27/02:00pm 16.3 NW 13 20 1013.8 - 0.0 - - - - - - -
27/01:30pm 15.1 WNW 10 18 1014.0 - 0.0 - - - - - - -
27/01:00pm 15.0 WNW 10 14 1014.3 - 0.0 - - - - - - -
27/12:30pm 15.1 WNW 12 17 1014.5 - 0.0 - - - - - - -
27/12:00pm 15.9 WNW 12 17 1014.8 - 0.0 - - - - - - -
27/11:30am 15.6 WNW 13 17 1014.9 - 0.0 - - - - - - -
27/11:00am 15.4 WNW 12 16 1015.0 - 0.0 - - - - - - -
27/10:30am 14.4 WNW 10 15 1015.2 - 0.0 - - - - - - -
27/10:00am 13.7 WNW 11 14 1015.6 - 0.0 - - - - - - -
27/09:30am 11.8 WNW 14 23 1015.9 - 0.0 - - - - - - -
27/09:00am 13.7 WNW 10 14 1015.6 - 0.2 - - - - - - -
27/08:30am 13.4 WNW 10 14 1015.6 - 0.2 - - - - - - -
27/08:00am 12.6 WNW 6 8 1015.4 - 0.2 - - - - - - -
27/07:30am 10.7 NW 6 7 1015.1 - 0.2 - - - - - - -
27/07:00am 9.1 NNW 6 7 1014.9 - 0.2 - - - - - - -
27/06:30am 7.8 NNW 6 6 1014.5 - 0.2 - - - - - - -
27/06:00am 7.5 NNW 4 5 1014.4 - 0.2 - - - - - - -
27/05:30am 7.5 NNW 5 6 1014.2 - 0.2 - - - - - - -
27/05:00am 8.2 WNW 6 7 1013.9 - 0.2 - - - - - - -
27/04:30am 8.6 WNW 7 9 1013.6 - 0.2 - - - - - - -
27/04:00am 9.0 WNW 7 9 1013.4 - 0.2 - - - - - - -
27/03:30am 9.2 W 9 11 1013.4 - 0.2 - - - - - - -
27/03:00am 9.2 W 11 13 1013.4 - 0.2 - - - - - - -
27/02:30am 9.3 W 8 11 1013.3 - 0.2 - - - - - - -
27/02:00am 9.7 W 10 14 1013.7 - 0.2 - - - - - - -
27/01:30am 9.5 W 12 15 1013.8 - 0.2 - - - - - - -
27/01:00am 9.9 W 9 13 1013.9 - 0.2 - - - - - - -
27/12:30am 10.3 W 10 13 1014.1 - 0.2 - - - - - - -
27/12:00am 9.7 WNW 10 13 1014.2 - 0.2 - - - - - - -
 
Date/Time
CST
Temp
°C
Wind Pressure Rain since
9am
mm
Weather Cloud Vis
km
Sea
Height
m
Swell
Dir  Spd
kts
Gust
kts
hPa Trend Height
m
Period
s
Dir
26/11:30pm 9.7 WNW 10 13 1014.3 - 0.2 - - - - - - -
26/11:00pm 9.9 W 11 16 1014.3 - 0.2 - - - - - - -
26/10:30pm 10.2 WNW 10 13 1014.2 - 0.2 - - - - - - -
26/10:00pm 10.1 WNW 8 11 1014.0 - 0.2 - - - - - - -
26/09:30pm 10.4 W 10 12 1014.1 - 0.2 - - - - - - -
26/09:00pm 10.6 W 9 13 1013.8 - 0.2 - - - - - - -
26/08:30pm 10.8 W 9 11 1013.8 - 0.2 - - - - - - -
26/08:00pm 11.0 W 7 9 1013.3 - 0.2 - - - - - - -
26/07:30pm 11.5 W 10 13 1013.0 - 0.2 - - - - - - -
26/07:00pm 11.8 W 11 15 1012.6 - 0.2 - - - - - - -
26/06:30pm 11.8 W 14 20 1012.3 - 0.2 - - - - - - -
26/06:00pm 12.0 WNW 14 20 1011.8 - 0.2 - - - - - - -
26/05:33pm 11.8 WNW 19 29 1011.4 - 0.2 - - - - - - -
26/05:30pm 11.7 WNW 18 26 1011.4 - 0.2 - - - - - - -
26/05:16pm 13.0 W 17 27 1011.3 - 0.2 - - - - - - -
26/05:11pm 13.0 W 17 27 1011.3 - 0.2 - - - - - - -
26/05:00pm 13.0 WNW 18 25 1011.0 - 0.2 - - - - - - -
26/04:30pm 13.9 WNW 23 30 1010.1 - 0.2 - - - - - - -

Other Formats:

Comma delimited format used in spreadsheet applications
http://www.bom.gov.au/fwo/IDS60701/IDS60701.94677.axf

JavaScript Object Notation format (JSON) in row-major order
http://www.bom.gov.au/fwo/IDS60701/IDS60701.94677.json